ロメ の空港の天気 - METARとTAF

ロメ空港 ( DXXX / LFW ) - トーゴ ロメ
飛行場実況気象(Metar)
観測時間08/25 19:00 GMT (08/25 19:00 UTC)
風向・風速南南西 5m/s
視程10km以上
天気現象
少しの雲 雲底高度 340m
気温25℃
湿度89%
気圧1014hPa
METARDXXX 251900Z 21010KT 9999 FEW011 25/23 Q1014 NOSIG
過去の天気等 Google飛行場航空写真 Wunderground天気予報

過去48時間のMETAR

飛行場予報(TAF)
発表時間: 8/25 17:00 GMT (8/25 17:00 UTC)
予報対象時間: 25日18時 GMT ~ 27日0時 GMT
風向・風速南西 5m/s
視程10km以上
全天の4割程度の雲 雲底高度 340m
TAF DXXX 251700Z 2518/2624 22010KT 9999 SCT011